createdAt,value
2018-04-24T00:00:56.078Z,6.23
2018-04-24T00:03:23.692Z,7.17
2018-04-24T00:05:51.339Z,6.03
2018-04-24T00:08:18.890Z,6.40
2018-04-24T00:10:46.563Z,10.23
2018-04-24T00:13:14.122Z,11.07
2018-04-24T00:15:41.671Z,10.83
2018-04-24T00:18:09.344Z,10.60
2018-04-24T00:20:36.962Z,9.47
2018-04-24T00:23:04.582Z,9.57
2018-04-24T00:25:32.268Z,10.60
2018-04-24T00:27:59.848Z,11.83
2018-04-24T00:30:27.463Z,12.30
2018-04-24T00:32:55.130Z,11.30
2018-04-24T00:35:22.758Z,11.37
2018-04-24T00:37:50.351Z,12.33
2018-04-24T00:40:18.039Z,11.97
2018-04-24T00:42:45.660Z,10.47
2018-04-24T00:45:13.268Z,12.57
2018-04-24T00:47:40.939Z,12.10
2018-04-24T00:50:08.506Z,10.90
2018-04-24T00:52:36.108Z,11.77
2018-04-24T00:55:03.679Z,13.27
2018-04-24T00:57:31.279Z,13.60
2018-04-24T00:59:58.839Z,12.90
2018-04-24T01:02:26.571Z,13.63
2018-04-24T01:04:54.122Z,8.50
2018-04-24T01:07:21.680Z,9.93
2018-04-24T01:09:49.339Z,6.87
2018-04-24T01:12:16.900Z,6.37
2018-04-24T01:14:44.560Z,7.67
2018-04-24T01:17:12.175Z,10.37
2018-04-24T01:19:39.775Z,12.17
2018-04-24T01:22:07.374Z,12.40
2018-04-24T01:24:34.934Z,16.37
2018-04-24T01:27:02.491Z,18.10
2018-04-24T01:29:30.055Z,17.20
2018-04-24T01:31:57.674Z,9.93
2018-04-24T01:34:25.234Z,15.50
2018-04-24T01:36:52.856Z,6.10
2018-04-24T01:39:20.459Z,8.70
2018-04-24T01:41:48.076Z,6.60
2018-04-24T01:44:15.746Z,6.87
2018-04-24T01:46:43.308Z,6.53
2018-04-24T01:49:11.804Z,6.30
2018-04-24T01:51:39.399Z,8.67
2018-04-24T01:54:07.033Z,8.27
2018-04-24T01:56:34.603Z,8.37
2018-04-24T01:59:04.836Z,9.00
2018-04-24T02:01:32.467Z,9.57
2018-04-24T02:04:00.126Z,9.77
2018-04-24T02:06:27.683Z,10.57
2018-04-24T02:08:55.274Z,10.87
2018-04-24T02:11:22.920Z,11.27
2018-04-24T02:13:50.556Z,11.70
2018-04-24T02:16:18.187Z,12.60
2018-04-24T02:18:45.848Z,14.13
2018-04-24T02:21:13.481Z,14.40
2018-04-24T02:23:41.672Z,14.77
2018-04-24T02:26:09.315Z,15.37
2018-04-24T02:28:36.912Z,15.23
2018-04-24T02:31:04.562Z,14.17
2018-04-24T02:33:32.196Z,14.63
2018-04-24T02:35:59.829Z,15.50
2018-04-24T02:38:28.601Z,14.77
2018-04-24T02:40:56.732Z,14.87
2018-04-24T02:43:24.514Z,15.90
2018-04-24T02:45:52.155Z,17.00
2018-04-24T02:48:19.775Z,16.60
2018-04-24T02:50:47.445Z,16.00
2018-04-24T02:53:15.065Z,15.93
2018-04-24T02:55:42.748Z,133.77
2018-04-24T02:58:10.443Z,224.90
2018-04-24T03:00:38.055Z,186.00
2018-04-24T03:03:05.699Z,161.50
2018-04-24T03:05:36.713Z,148.03
2018-04-24T03:08:10.168Z,140.47
2018-04-24T03:10:40.733Z,78.47
2018-04-24T03:13:10.387Z,41.87
2018-04-24T03:15:40.057Z,51.30
2018-04-24T03:18:08.823Z,55.23
2018-04-24T03:20:37.549Z,60.83
2018-04-24T03:23:05.333Z,52.43
2018-04-24T03:25:33.422Z,39.67
2018-04-24T03:28:02.213Z,37.60
2018-04-24T03:30:30.405Z,28.07
2018-04-24T03:32:59.008Z,29.47
2018-04-24T03:35:28.707Z,28.13
2018-04-24T03:37:57.486Z,26.93
2018-04-24T03:40:26.305Z,21.63
2018-04-24T03:42:54.670Z,15.37
2018-04-24T03:45:24.363Z,15.43
2018-04-24T03:47:51.992Z,15.97
2018-04-24T03:50:19.635Z,15.17
2018-04-24T03:52:50.181Z,13.77
2018-04-24T03:55:19.420Z,13.87
2018-04-24T03:57:50.389Z,15.10
2018-04-24T04:00:22.857Z,14.93
2018-04-24T04:02:53.573Z,14.80
2018-04-24T04:05:25.596Z,15.13
2018-04-24T04:07:57.415Z,15.33
2018-04-24T04:10:25.238Z,16.10
2018-04-24T04:12:53.677Z,14.93
2018-04-24T04:15:26.451Z,12.53
2018-04-24T04:18:07.786Z,12.10
2018-04-24T04:20:51.701Z,12.37
2018-04-24T04:23:32.230Z,12.37
2018-04-24T04:26:03.307Z,12.27
2018-04-24T04:28:30.973Z,11.87
2018-04-24T04:30:58.616Z,11.20
2018-04-24T04:33:26.343Z,10.80
2018-04-24T04:35:53.926Z,11.43
2018-04-24T04:38:21.556Z,9.60
2018-04-24T04:40:49.244Z,9.40
2018-04-24T04:43:18.296Z,8.10
2018-04-24T04:45:45.957Z,7.27
2018-04-24T04:48:13.610Z,8.20
2018-04-24T04:50:41.201Z,8.37
2018-04-24T04:53:08.862Z,7.60
2018-04-24T04:55:36.415Z,8.73
2018-04-24T04:58:04.063Z,8.90
2018-04-24T05:00:31.704Z,8.57
2018-04-24T05:02:59.303Z,8.97
2018-04-24T05:05:26.859Z,9.23
2018-04-24T05:07:54.532Z,8.67
2018-04-24T05:10:22.178Z,9.10
2018-04-24T05:12:49.894Z,9.13
2018-04-24T05:15:17.488Z,9.13
2018-04-24T05:17:45.087Z,8.13
2018-04-24T05:20:12.696Z,9.43
2018-04-24T05:22:41.268Z,8.90
2018-04-24T05:25:08.908Z,8.03
2018-04-24T05:27:36.901Z,8.30
2018-04-24T05:30:04.458Z,7.83
2018-04-24T05:32:32.083Z,7.87
2018-04-24T05:34:59.679Z,7.93
2018-04-24T05:37:27.295Z,7.87
2018-04-24T05:39:54.957Z,7.53
2018-04-24T05:42:23.243Z,7.70
2018-04-24T05:44:50.899Z,7.83
2018-04-24T05:47:18.451Z,6.87
2018-04-24T05:49:46.109Z,7.53
2018-04-24T05:52:13.779Z,7.27
2018-04-24T05:54:41.360Z,7.90
2018-04-24T05:57:08.940Z,7.47
2018-04-24T05:59:36.623Z,6.13
2018-04-24T06:02:04.236Z,7.10
2018-04-24T06:04:31.803Z,6.10
2018-04-24T06:06:59.420Z,6.93
2018-04-24T06:09:27.121Z,6.00
2018-04-24T06:11:54.839Z,6.57
2018-04-24T06:14:22.447Z,6.87
2018-04-24T06:16:50.060Z,5.73
2018-04-24T06:19:17.675Z,6.30
2018-04-24T06:21:45.300Z,7.57
2018-04-24T06:24:12.913Z,6.63
2018-04-24T06:26:40.526Z,7.20
2018-04-24T06:29:08.168Z,7.80
2018-04-24T06:31:35.786Z,6.27
2018-04-24T06:34:03.335Z,6.82
2018-04-24T06:36:30.987Z,6.77
2018-04-24T06:38:58.542Z,5.47
2018-04-24T06:41:26.107Z,5.33
2018-04-24T06:43:53.784Z,6.67
2018-04-24T06:55:40.712Z,5.43
2018-04-24T06:58:08.327Z,4.83
2018-04-24T07:00:37.654Z,5.07
2018-04-24T07:03:05.170Z,4.60
2018-04-24T07:05:32.778Z,4.53
2018-04-24T07:08:00.426Z,5.67
2018-04-24T07:10:27.976Z,4.97
2018-04-24T07:12:55.609Z,4.87
2018-04-24T07:15:23.272Z,4.45
2018-04-24T07:17:50.894Z,4.68
2018-04-24T07:20:18.452Z,4.00
2018-04-24T07:22:45.995Z,4.00
2018-04-24T07:25:14.407Z,3.65
2018-04-24T07:27:42.020Z,4.62
2018-04-24T07:30:09.667Z,4.95
2018-04-24T07:32:38.211Z,3.83
2018-04-24T07:35:05.790Z,3.65
2018-04-24T07:37:33.343Z,3.53
2018-04-24T07:40:00.956Z,4.50
2018-04-24T07:42:28.617Z,6.53
2018-04-24T07:44:56.329Z,3.72
2018-04-24T07:47:23.887Z,4.40
2018-04-24T07:49:51.463Z,4.20
2018-04-24T07:52:19.079Z,4.15
2018-04-24T07:54:46.787Z,5.37
2018-04-24T07:57:14.356Z,3.40
2018-04-24T07:59:42.002Z,3.95
2018-04-24T08:02:09.618Z,3.22
2018-04-24T08:04:37.173Z,3.17
2018-04-24T08:07:04.774Z,3.00
2018-04-24T08:09:32.351Z,3.70
2018-04-24T08:12:00.020Z,2.60
2018-04-24T08:14:27.652Z,3.65
2018-04-24T08:16:55.284Z,3.35
2018-04-24T08:19:22.967Z,3.15
2018-04-24T08:21:50.592Z,4.18
2018-04-24T08:24:18.260Z,3.22
2018-04-24T08:26:45.987Z,3.85
2018-04-24T08:29:13.611Z,3.50
2018-04-24T08:31:41.225Z,3.40
2018-04-24T08:34:09.182Z,2.97
2018-04-24T08:36:36.758Z,2.72
2018-04-24T08:39:04.517Z,3.10
2018-04-24T08:41:32.003Z,2.80
2018-04-24T08:43:59.597Z,2.78
2018-04-24T08:46:27.160Z,2.78
2018-04-24T08:48:54.770Z,4.53
2018-04-24T08:51:22.327Z,3.17
2018-04-24T08:53:51.150Z,2.92
2018-04-24T08:56:19.715Z,3.83
2018-04-24T08:58:48.078Z,2.83
2018-04-24T09:01:15.830Z,3.58
2018-04-24T09:03:43.376Z,2.70
2018-04-24T09:06:10.928Z,2.90
2018-04-24T09:08:38.623Z,3.55
2018-04-24T09:11:06.136Z,4.03
2018-04-24T09:13:33.774Z,2.87
2018-04-24T09:16:01.332Z,3.25
2018-04-24T09:18:28.955Z,2.75
2018-04-24T09:20:56.569Z,2.62
2018-04-24T09:23:24.111Z,2.85
2018-04-24T09:25:51.706Z,2.20
2018-04-24T09:28:19.367Z,2.92
2018-04-24T09:30:47.739Z,2.53
2018-04-24T09:33:15.356Z,2.40
2018-04-24T09:35:42.965Z,2.05
2018-04-24T09:38:10.515Z,2.03
2018-04-24T09:40:38.135Z,2.57
2018-04-24T09:43:05.775Z,2.10
2018-04-24T09:45:34.294Z,2.12
2018-04-24T09:48:02.035Z,2.22
2018-04-24T09:50:29.646Z,2.90
2018-04-24T09:52:57.206Z,2.90
2018-04-24T09:55:24.837Z,2.60
2018-04-24T09:57:52.537Z,3.03
2018-04-24T10:00:25.749Z,2.72
2018-04-24T10:02:53.463Z,3.03
2018-04-24T10:05:21.033Z,2.17
2018-04-24T10:07:48.707Z,2.97
2018-04-24T10:10:16.316Z,2.95
2018-04-24T10:12:43.880Z,2.17
2018-04-24T10:15:11.509Z,3.22
2018-04-24T10:17:39.123Z,2.70
2018-04-24T10:20:06.794Z,2.05
2018-04-24T10:22:35.317Z,2.08
2018-04-24T10:25:02.931Z,2.28
2018-04-24T10:27:30.612Z,2.12
2018-04-24T10:29:58.169Z,2.50
2018-04-24T10:32:25.777Z,3.10
2018-04-24T10:34:53.351Z,2.55
2018-04-24T10:37:20.975Z,2.50
2018-04-24T10:39:48.535Z,1.92
2018-04-24T10:42:16.148Z,1.90
2018-04-24T10:44:43.738Z,3.80
2018-04-24T10:47:11.492Z,1.92
2018-04-24T10:49:39.160Z,1.73
2018-04-24T10:52:06.722Z,1.50
2018-04-24T10:54:34.334Z,2.40
2018-04-24T10:57:03.743Z,2.00
2018-04-24T10:59:32.266Z,1.42
2018-04-24T11:01:59.886Z,2.08
2018-04-24T11:04:27.595Z,1.85
2018-04-24T11:06:55.423Z,1.50
2018-04-24T11:09:23.044Z,2.90
2018-04-24T11:11:50.713Z,2.35
2018-04-24T11:14:18.352Z,1.60
2018-04-24T11:16:46.064Z,5.45
2018-04-24T11:19:13.621Z,1.73
2018-04-24T11:21:41.232Z,1.33
2018-04-24T11:24:08.846Z,2.05
2018-04-24T11:26:36.403Z,1.45
2018-04-24T11:29:04.011Z,2.35
2018-04-24T11:31:31.656Z,4.90
2018-04-24T11:34:00.088Z,1.83
2018-04-24T11:36:28.675Z,2.40
2018-04-24T11:38:56.232Z,2.40
2018-04-24T11:41:23.836Z,3.12
2018-04-24T11:43:51.493Z,2.12
2018-04-24T11:46:19.015Z,2.50
2018-04-24T11:48:47.588Z,2.08
2018-04-24T11:51:16.207Z,2.50
2018-04-24T11:53:43.819Z,3.35
2018-04-24T11:56:11.371Z,2.00
2018-04-24T11:58:39.035Z,1.85
2018-04-24T12:01:06.666Z,1.60
2018-04-24T12:03:34.280Z,1.67
2018-04-24T12:06:01.899Z,1.70
2018-04-24T12:08:29.498Z,1.55
2018-04-24T12:10:58.060Z,2.62
2018-04-24T12:13:25.611Z,2.28
2018-04-24T12:15:53.202Z,1.70
2018-04-24T12:18:20.859Z,2.00
2018-04-24T12:20:48.438Z,1.98
2018-04-24T12:23:16.864Z,2.08
2018-04-24T12:25:44.453Z,2.08
2018-04-24T12:28:12.069Z,1.60
2018-04-24T12:30:39.697Z,1.35
2018-04-24T12:33:07.304Z,2.95
2018-04-24T12:35:34.870Z,2.42
2018-04-24T12:38:02.478Z,2.45
2018-04-24T12:40:30.038Z,2.50
2018-04-24T12:42:57.636Z,2.37
2018-04-24T12:45:25.187Z,2.42
2018-04-24T12:47:54.788Z,2.50
2018-04-24T12:50:22.403Z,2.53
2018-04-24T12:52:50.064Z,3.63
2018-04-24T12:55:17.734Z,3.12
2018-04-24T12:57:45.357Z,2.47
2018-04-24T13:00:13.044Z,2.62
2018-04-24T13:02:40.661Z,2.15
2018-04-24T13:05:08.278Z,3.50
2018-04-24T13:10:10.023Z,2.78
2018-04-24T13:12:37.644Z,3.05
2018-04-24T13:15:06.950Z,9.02
2018-04-24T13:17:34.567Z,4.18
2018-04-24T13:20:02.157Z,4.82
2018-04-24T13:22:29.714Z,4.47
2018-04-24T13:24:57.306Z,3.87
2018-04-24T13:27:24.926Z,4.62
2018-04-24T13:29:52.470Z,3.15
2018-04-24T13:32:20.067Z,4.33
2018-04-24T13:34:47.619Z,4.37
2018-04-24T13:37:15.309Z,4.80
2018-04-24T13:39:42.862Z,5.93
2018-04-24T13:42:10.494Z,4.37
2018-04-24T13:44:39.951Z,5.25
2018-04-24T13:47:07.494Z,4.65
2018-04-24T13:49:35.058Z,6.90
2018-04-24T13:52:02.694Z,3.70
2018-04-24T13:54:30.306Z,4.57
2018-04-24T13:56:57.850Z,3.92
2018-04-24T13:59:25.498Z,4.10
2018-04-24T14:01:54.050Z,3.95
2018-04-24T14:04:21.594Z,3.37
2018-04-24T14:06:49.195Z,3.87
2018-04-24T14:09:16.893Z,4.03
2018-04-24T14:11:44.434Z,3.42
2018-04-24T14:14:12.971Z,3.22
2018-04-24T14:16:40.582Z,3.30
2018-04-24T14:19:08.129Z,3.42
2018-04-24T14:21:35.832Z,3.12
2018-04-24T14:24:03.423Z,3.40
2018-04-24T14:26:31.014Z,3.33
2018-04-24T14:28:58.666Z,2.83
2018-04-24T14:31:26.327Z,3.40
2018-04-24T14:33:53.882Z,3.40
2018-04-24T14:36:21.474Z,4.30
2018-04-24T14:38:49.906Z,3.60
2018-04-24T14:41:17.499Z,3.35
2018-04-24T14:43:45.046Z,3.45
2018-04-24T14:46:12.731Z,2.90
2018-04-24T14:48:40.275Z,2.80
2018-04-24T14:51:07.882Z,3.08
2018-04-24T14:53:36.486Z,3.17
2018-04-24T14:56:04.030Z,2.67
2018-04-24T14:58:31.678Z,2.53
2018-04-24T15:00:59.253Z,3.10
2018-04-24T15:03:26.799Z,2.87
2018-04-24T15:05:54.394Z,4.90
2018-04-24T15:08:22.051Z,3.97
2018-04-24T15:10:49.595Z,3.40
2018-04-24T15:13:17.159Z,3.50
2018-04-24T15:15:44.806Z,3.20
2018-04-24T15:18:12.415Z,3.30
2018-04-24T15:20:40.091Z,3.85
2018-04-24T15:23:07.694Z,3.22
2018-04-24T15:25:35.237Z,3.58
2018-04-24T15:28:02.964Z,3.22
2018-04-24T15:30:31.469Z,3.65
2018-04-24T15:32:59.018Z,3.35
2018-04-24T15:35:26.605Z,3.40
2018-04-24T15:37:54.211Z,3.42
2018-04-24T15:40:21.823Z,3.40
2018-04-24T15:42:49.378Z,4.20
2018-04-24T15:45:16.919Z,3.97
2018-04-24T15:47:44.525Z,3.67
2018-04-24T15:50:12.113Z,3.33
2018-04-24T15:52:39.697Z,3.72
2018-04-24T15:55:07.304Z,3.97
2018-04-24T15:57:34.955Z,3.75
2018-04-24T16:00:02.571Z,4.30
2018-04-24T16:02:30.234Z,3.70
2018-04-24T16:04:57.774Z,4.07
2018-04-24T16:07:25.358Z,4.05
2018-04-24T16:09:52.910Z,4.22
2018-04-24T16:12:20.494Z,4.43
2018-04-24T16:14:48.096Z,5.22
2018-04-24T16:17:15.650Z,3.92
2018-04-24T16:19:43.241Z,4.40
2018-04-24T16:22:11.726Z,4.18
2018-04-24T16:24:39.322Z,4.25
2018-04-24T16:27:06.931Z,4.47
2018-04-24T16:29:34.512Z,4.40
2018-04-24T16:32:02.582Z,4.70
2018-04-24T16:34:30.209Z,4.32
2018-04-24T16:36:58.054Z,4.15
2018-04-24T16:39:25.678Z,4.50
2018-04-24T16:41:53.311Z,5.30
2018-04-24T16:44:20.919Z,6.20
2018-04-24T16:46:49.293Z,7.57
2018-04-24T16:49:16.855Z,6.35
2018-04-24T16:51:44.527Z,8.10
2018-04-24T16:54:13.108Z,6.70
2018-04-24T16:56:42.791Z,4.45
2018-04-24T16:59:11.126Z,4.78
2018-04-24T17:01:38.754Z,5.40
2018-04-24T17:04:08.101Z,5.45
2018-04-24T17:06:35.710Z,5.55
2018-04-24T17:09:03.332Z,5.43
2018-04-24T17:11:31.057Z,6.07
2018-04-24T17:13:59.524Z,5.72
2018-04-24T17:16:28.014Z,4.70
2018-04-24T17:18:55.618Z,3.70
2018-04-24T17:21:23.166Z,4.60
2018-04-24T17:23:51.607Z,5.00
2018-04-24T17:26:19.167Z,4.60
2018-04-24T17:28:47.102Z,4.32
2018-04-24T17:31:14.772Z,4.10
2018-04-24T17:33:42.912Z,4.40
2018-04-24T17:36:10.931Z,4.00
2018-04-24T17:38:38.966Z,4.75
2018-04-24T17:41:08.111Z,5.30
2018-04-24T17:43:35.793Z,5.70
2018-04-24T17:46:04.026Z,5.10
2018-04-24T17:48:32.058Z,5.33
2018-04-24T17:51:00.359Z,4.87
2018-04-24T17:53:27.970Z,5.90
2018-04-24T17:55:55.550Z,4.57
2018-04-24T17:58:24.030Z,5.53
2018-04-24T18:00:51.638Z,5.00
2018-04-24T18:03:20.177Z,4.50
2018-04-24T18:05:47.788Z,5.10
2018-04-24T18:08:15.336Z,4.73
2018-04-24T18:10:42.978Z,5.33
2018-04-24T18:13:10.522Z,5.60
2018-04-24T18:15:38.073Z,4.72
2018-04-24T18:18:05.714Z,4.10
2018-04-24T18:20:33.314Z,4.07
2018-04-24T18:23:00.867Z,3.87
2018-04-24T18:25:28.523Z,3.90
2018-04-24T18:27:56.126Z,3.90
2018-04-24T18:30:23.730Z,4.20
2018-04-24T18:32:51.660Z,3.90
2018-04-24T18:35:19.202Z,3.70
2018-04-24T18:37:46.851Z,3.60
2018-04-24T18:40:14.603Z,3.10
2018-04-24T18:42:42.191Z,3.67
2018-04-24T18:45:09.849Z,3.53
2018-04-24T18:47:37.433Z,4.95
2018-04-24T18:50:05.849Z,4.90
2018-04-24T18:52:33.487Z,7.10
2018-04-24T18:55:01.058Z,8.63
2018-04-24T18:57:28.622Z,8.77
2018-04-24T18:59:56.243Z,8.90
2018-04-24T19:02:23.785Z,8.10
2018-04-24T19:04:51.332Z,7.87
2018-04-24T19:07:18.957Z,6.97
2018-04-24T19:09:46.507Z,4.43
2018-04-24T19:12:14.119Z,4.53
2018-04-24T19:14:41.774Z,4.90
2018-04-24T19:17:09.414Z,4.10
2018-04-24T19:19:38.754Z,4.43
2018-04-24T19:22:06.654Z,3.80
2018-04-24T19:24:40.341Z,4.33
2018-04-24T19:27:07.886Z,3.73
2018-04-24T19:29:36.311Z,4.00
2018-04-24T19:32:09.554Z,4.33
2018-04-24T19:34:37.978Z,4.70
2018-04-24T19:37:05.587Z,4.60
2018-04-24T19:39:38.620Z,10.07
2018-04-24T19:42:06.281Z,9.43
2018-04-24T19:44:34.831Z,26.27
2018-04-24T19:47:02.730Z,6.60
2018-04-24T19:49:36.197Z,5.23
2018-04-24T19:52:03.789Z,4.97
2018-04-24T19:54:32.407Z,6.30
2018-04-24T19:57:00.143Z,6.53
2018-04-24T19:59:27.694Z,4.28
2018-04-24T20:01:55.314Z,4.60
2018-04-24T20:04:23.008Z,4.20
2018-04-24T20:06:50.667Z,4.33
2018-04-24T20:09:18.276Z,5.53
2018-04-24T20:11:45.936Z,4.60
2018-04-24T20:14:14.321Z,5.50
2018-04-24T20:16:41.976Z,4.50
2018-04-24T20:19:09.526Z,4.37
2018-04-24T20:21:37.182Z,4.13
2018-04-24T20:24:04.725Z,4.50
2018-04-24T20:26:32.387Z,5.57
2018-04-24T20:29:00.027Z,5.77
2018-04-24T20:31:28.550Z,6.13
2018-04-24T20:33:56.141Z,6.27
2018-04-24T20:36:23.746Z,6.40
2018-04-24T20:38:51.302Z,7.87
2018-04-24T20:41:18.979Z,9.47
2018-04-24T20:43:46.751Z,8.37
2018-04-24T20:46:14.408Z,10.57
2018-04-24T20:48:42.810Z,7.93
2018-04-24T20:51:11.039Z,10.57
2018-04-24T20:53:38.848Z,8.47
2018-04-24T20:56:06.401Z,9.90
2018-04-24T20:58:33.958Z,8.83
2018-04-24T21:01:01.695Z,9.30
2018-04-24T21:03:29.307Z,10.67
2018-04-24T21:05:56.861Z,10.70
2018-04-24T21:08:24.535Z,10.23
2018-04-24T21:10:52.782Z,10.00
2018-04-24T21:13:21.478Z,12.33
2018-04-24T21:15:49.199Z,10.43
2018-04-24T21:18:16.811Z,9.90
2018-04-24T21:20:44.366Z,11.20
2018-04-24T21:23:11.981Z,11.17
2018-04-24T21:25:39.540Z,13.07
2018-04-24T21:28:07.183Z,9.97
2018-04-24T21:30:34.782Z,9.20
2018-04-24T21:33:02.358Z,8.20
2018-04-24T21:35:29.910Z,7.77
2018-04-24T21:37:57.567Z,7.03
2018-04-24T21:40:25.206Z,7.37
2018-04-24T21:42:52.752Z,7.43
2018-04-24T21:45:20.358Z,7.33
2018-04-24T21:47:47.946Z,7.23
2018-04-24T21:50:15.547Z,7.07
2018-04-24T21:52:43.142Z,7.30
2018-04-24T21:55:10.743Z,6.80
2018-04-24T21:57:38.338Z,7.07
2018-04-24T22:00:05.964Z,7.17
2018-04-24T22:02:33.560Z,7.20
2018-04-24T22:05:01.103Z,6.93
2018-04-24T22:07:28.706Z,6.90
2018-04-24T22:09:56.298Z,5.63
2018-04-24T22:12:23.902Z,6.63
2018-04-24T22:14:51.546Z,6.13
2018-04-24T22:17:19.146Z,6.83
2018-04-24T22:19:46.734Z,7.27
2018-04-24T22:22:14.324Z,6.87
2018-04-24T22:24:41.866Z,6.90
2018-04-24T22:27:09.452Z,6.43
2018-04-24T22:29:37.103Z,6.73
2018-04-24T22:32:04.690Z,5.63
2018-04-24T22:34:32.347Z,6.50
2018-04-24T22:36:59.897Z,7.70
2018-04-24T22:39:27.437Z,7.43
2018-04-24T22:41:55.050Z,8.07
2018-04-24T22:44:22.655Z,8.00
2018-04-24T22:46:50.287Z,7.60
2018-04-24T22:49:17.886Z,7.60
2018-04-24T22:51:45.495Z,9.40
2018-04-24T22:54:13.046Z,11.07
2018-04-24T22:56:40.638Z,10.80
2018-04-24T22:59:08.241Z,10.33
2018-04-24T23:01:35.800Z,9.87
2018-04-24T23:04:03.455Z,8.43
2018-04-24T23:06:30.997Z,13.73
2018-04-24T23:08:58.586Z,17.90
2018-04-24T23:11:38.019Z,17.67
2018-04-24T23:14:17.401Z,14.50
2018-04-24T23:16:56.791Z,13.67
2018-04-24T23:19:36.049Z,13.00
2018-04-24T23:22:03.213Z,12.57
2018-04-24T23:24:30.823Z,14.40
2018-04-24T23:26:58.381Z,16.97
2018-04-24T23:29:26.014Z,17.70
2018-04-24T23:31:53.568Z,16.40
2018-04-24T23:34:21.139Z,14.77
2018-04-24T23:36:48.793Z,12.10
2018-04-24T23:39:16.403Z,11.80
2018-04-24T23:41:43.993Z,11.57
2018-04-24T23:44:11.545Z,10.83
2018-04-24T23:46:39.277Z,11.00
2018-04-24T23:49:06.862Z,11.60
2018-04-24T23:51:34.473Z,10.63
2018-04-24T23:54:02.146Z,10.03
2018-04-24T23:56:29.726Z,10.00
2018-04-24T23:58:57.330Z,9.57
